Sawyer County Airport
KHYR : now visible

Airfield :











YOU CAN JOIN US ON...

 
LOGIN :

Register | Disclaimer

   EN    FR    IT 

 









Legend :    VFR   Marginal VFR   IFR   Intensive IFR   Very Intensive IFR
Visi :
Ceiling :
>= 8 km
>= 3000ft
5 to 8 km
1000 to 3000 ft
1500m to 5 km
500 to 1000 ft
800 to 1500m
200 to 500 ft
< 800m
< 200 ft
Symbols :   Thunderstorms  Fog  Heavy snow  Heavy precipitations  Wind > 20 kt







- Airport Elevation : 1216 ft


KHYR - Sawyer County

CURRENT METAR :
  • 210453Z AUTO 17007KT 6SM BR FEW110 22/19 A2999 RMK AO2 SLP149 T02170194

EXPIRED METARs :
  • 210353Z AUTO 15010KT 8SM CLR 22/19 A2998 RMK AO2 SLP148 T02220194
  • 210253Z AUTO 17008KT 8SM CLR 23/19 A3000 RMK AO2 SLP155 T02280194 58009

TAF KHYR
Valid from the 21 at 00:00 until the 22 at 00:00 UTC


202344Z 2100/2124 15004KT P6SM SCT035
FM210300 16005KT 6SM BR SCT010
FM210600 17005KT 3SM BR BKN200 WS020/20035KT
FM211300 17007G17KT 6SM BR VCTS BKN025CB
FM211500 17010G25KT 6SM -SHRA BR VCTS OVC009CB
No reported NOTAMs for that airfield.



MET'MAP, your aeronautical weather chart ! - Copyright ORBIFLY December 2007 - Disclaimer

ORBIFLY MET'MAP TEAM :

Programming & Development : Alexandra Zaïnal
Concept & Development : Baudouin d'Aumeries
Co-Development & Prog : Marc-Olivier Méhu
Technical & hardware support : Manuel Goepfert

Contact : metmap@orbifly.com




SOURCES & CREDITS :

   NOAA       Earth
Advisory